NCAR-RAP Real-Time Weather Data

Output produced by METARs form (18 August 2018  01:02 UTC)
found at http://weather.rap.ucar.edu/surface/
 
RJFU 180000Z VRB01KT 9999 FEW035 BKN045 28/20 Q1009
RJFU 172300Z 15003KT 9999 FEW030 BKN045 27/20 Q1009
RJFU 172200Z 15005KT 9999 FEW030 BKN045 26/20 Q1009
RJFU 172110Z VRB02KT 9999 FEW030 BKN045 25/22 Q1009 RMK 1CU030 7SC045 A2980
RJFU 171200Z 35010KT 9999 FEW030 SCT/// 27/21 Q1008
RJFU 171100Z 36010KT 9999 FEW050 SCT/// 27/21 Q1007
RJFU 171000Z 35015KT 9999 FEW050 BKN/// 27/21 Q1006
RJFU 170900Z 34012KT 9999 FEW040 BKN/// 28/21 Q1006
RJFU 170800Z 34014KT 9999 FEW035 BKN/// 30/22 Q1006
RJFU 170700Z 35014KT 9999 FEW035 BKN/// 32/23 Q1006
RJFU 170600Z 35014KT 9999 FEW035 BKN/// 32/24 Q1006
RJFU 170549Z 35010KT 9999 FEW035 BKN/// 32/24 Q1006 RMK 1CU035 A2972
RJFU 170500Z 16004KT 070V250 9999 FEW030 BKN040 BKN/// 32/23 Q1007
RJFU 170400Z 33005KT 250V050 9999 FEW030 SCT040 BKN/// 31/23 Q1007
RJFU 170300Z 29005KT 220V330 9999 FEW030 SCT040 BKN/// 31/23 Q1007
RJFU 170200Z 06006KT 9999 FEW025 SCT050 BKN/// 31/23 Q1008
RJFU 170100Z 03012KT 9999 FEW025 BKN/// 30/23 Q1008
RJFU 170012Z 04011KT 290V090 9999 FEW025 BKN130 BKN/// 29/23 Q1008 RMK 1CU025 5AC130 A2978
RJFU 170000Z VRB01KT 9999 FEW025 BKN130 BKN/// 29/24 Q1008
RJFU 162300Z 16003KT 9999 FEW015 BKN130 BKN/// 27/25 Q1008
RJFU 162200Z 15006KT 9999 FEW015 BKN140 BKN/// 27/25 Q1008
RJFU 162110Z VRB02KT 9999 FEW015 SCT050 BKN140 26/25 Q1008 RMK 1CU015 3SC050 6AC140 A2977
RJFU 161200Z 16008KT 9999 FEW035 BKN/// 29/25 Q1007
RJFU 161100Z 14009KT 9999 FEW035 SCT150 BKN/// 29/25 Q1007
RJFU 161000Z 15009KT 9999 FEW035 SCT130 BKN150 30/25 Q1006
RJFU 160900Z 19003KT 140V230 9999 FEW035 FEW040CB SCT130 BKN150 31/25 Q1006
RJFU 160800Z 12004KT 360V170 9999 FEW040 SCT130 BKN150 31/26 Q1006
RJFU 160700Z 14006KT 9999 FEW040 SCT150 BKN/// 32/25 Q1006
RJFU 160600Z 11008KT 9999 FEW040 BKN150 BKN/// 34/23 Q1005
RJFU 160500Z 12009KT 9999 FEW040 SCT130 BKN150 34/24 Q1006
RJFU 160400Z 13009KT 9999 FEW030 BKN150 BKN/// 34/25 Q1006
RJFU 160300Z 11010KT 9999 FEW030 SCT040 BKN150 34/24 Q1007
RJFU 160200Z 13009KT 9999 FEW025 BKN170 BKN/// 32/24 Q1007
RJFU 160130Z 13008KT 9999 FEW025 BKN170 BKN/// 32/24 Q1007 RMK 1CU025 5AC170 A2974
RJFU 160100Z 13009KT 110V170 9999 FEW025 SCT140 BKN170 30/26 Q1007
RJFU 160000Z 16007KT 9999 FEW020 BKN150 BKN/// 29/26 Q1007
RJFU 152300Z 14010KT 9999 FEW035 BKN150 BKN/// 29/26 Q1006
RJFU 152200Z 15008KT 9999 FEW030 BKN150 BKN/// 28/25 Q1006
RJFU 152110Z 13007KT 9999 FEW030 SCT050 BKN/// 28/25 Q1006 RMK 1CU030 3SC050 A2972